sensor_id;sensor_type;location;lat;lon;timestamp;P1;durP1;ratioP1;P2;durP2;ratioP2
69822;SDS011;57119;52.516;13.508;2022-08-25T00:02:02;17.07;;;7.40;;
69822;SDS011;57119;52.516;13.508;2022-08-25T00:04:30;15.10;;;7.15;;
69822;SDS011;57119;52.516;13.508;2022-08-25T00:06:56;13.07;;;7.30;;
69822;SDS011;57119;52.516;13.508;2022-08-25T00:09:22;13.77;;;7.73;;
69822;SDS011;57119;52.516;13.508;2022-08-25T00:11:49;13.73;;;8.07;;
69822;SDS011;57119;52.516;13.508;2022-08-25T00:14:17;17.42;;;7.95;;
69822;SDS011;57119;52.516;13.508;2022-08-25T00:16:46;12.53;;;6.90;;
69822;SDS011;57119;52.516;13.508;2022-08-25T00:19:14;11.85;;;7.15;;
69822;SDS011;57119;52.516;13.508;2022-08-25T00:21:45;12.27;;;7.85;;
69822;SDS011;57119;52.516;13.508;2022-08-25T00:24:12;12.98;;;7.97;;
69822;SDS011;57119;52.516;13.508;2022-08-25T00:26:40;13.48;;;7.60;;
69822;SDS011;57119;52.516;13.508;2022-08-25T00:29:07;15.57;;;8.33;;
69822;SDS011;57119;52.516;13.508;2022-08-25T00:31:33;11.70;;;7.45;;
69822;SDS011;57119;52.516;13.508;2022-08-25T00:33:59;13.88;;;8.25;;
69822;SDS011;57119;52.516;13.508;2022-08-25T00:36:25;15.87;;;8.13;;
69822;SDS011;57119;52.516;13.508;2022-08-25T00:38:52;15.80;;;8.48;;
69822;SDS011;57119;52.516;13.508;2022-08-25T00:41:19;13.35;;;7.90;;
69822;SDS011;57119;52.516;13.508;2022-08-25T00:43:54;12.57;;;7.53;;
69822;SDS011;57119;52.516;13.508;2022-08-25T00:46:26;17.58;;;8.20;;
69822;SDS011;57119;52.516;13.508;2022-08-25T00:49:05;12.85;;;7.70;;
69822;SDS011;57119;52.516;13.508;2022-08-25T00:54:02;15.43;;;8.60;;
69822;SDS011;57119;52.516;13.508;2022-08-25T00:56:29;17.27;;;8.13;;
69822;SDS011;57119;52.516;13.508;2022-08-25T00:58:55;13.32;;;8.48;;
69822;SDS011;57119;52.516;13.508;2022-08-25T01:01:22;13.93;;;8.32;;
69822;SDS011;57119;52.516;13.508;2022-08-25T01:03:47;15.55;;;7.97;;
69822;SDS011;57119;52.516;13.508;2022-08-25T01:06:13;15.50;;;8.80;;
69822;SDS011;57119;52.516;13.508;2022-08-25T01:08:38;12.63;;;8.03;;
69822;SDS011;57119;52.516;13.508;2022-08-25T01:11:05;13.48;;;8.30;;
69822;SDS011;57119;52.516;13.508;2022-08-25T01:13:34;14.00;;;7.80;;
69822;SDS011;57119;52.516;13.508;2022-08-25T01:16:03;15.40;;;8.70;;
69822;SDS011;57119;52.516;13.508;2022-08-25T01:18:30;15.63;;;8.52;;
69822;SDS011;57119;52.516;13.508;2022-08-25T01:21:07;19.77;;;8.67;;
69822;SDS011;57119;52.516;13.508;2022-08-25T01:23:33;17.40;;;8.73;;
69822;SDS011;57119;52.516;13.508;2022-08-25T01:26:07;14.90;;;8.70;;
69822;SDS011;57119;52.516;13.508;2022-08-25T01:28:33;14.50;;;8.20;;
69822;SDS011;57119;52.516;13.508;2022-08-25T01:30:59;16.33;;;8.30;;
69822;SDS011;57119;52.516;13.508;2022-08-25T01:33:25;17.80;;;9.30;;
69822;SDS011;57119;52.516;13.508;2022-08-25T01:35:50;15.80;;;8.23;;
69822;SDS011;57119;52.516;13.508;2022-08-25T01:38:16;13.43;;;8.27;;
69822;SDS011;57119;52.516;13.508;2022-08-25T01:40:42;13.45;;;8.50;;
69822;SDS011;57119;52.516;13.508;2022-08-25T01:45:40;18.52;;;9.02;;
69822;SDS011;57119;52.516;13.508;2022-08-25T01:48:07;12.23;;;8.65;;
69822;SDS011;57119;52.516;13.508;2022-08-25T01:50:34;14.93;;;9.03;;
69822;SDS011;57119;52.516;13.508;2022-08-25T01:55:28;15.18;;;8.25;;
69822;SDS011;57119;52.516;13.508;2022-08-25T01:57:53;13.48;;;8.85;;
69822;SDS011;57119;52.516;13.508;2022-08-25T02:00:20;14.45;;;9.00;;
69822;SDS011;57119;52.516;13.508;2022-08-25T02:02:46;13.50;;;8.60;;
69822;SDS011;57119;52.516;13.508;2022-08-25T02:05:13;19.17;;;9.53;;
69822;SDS011;57119;52.516;13.508;2022-08-25T02:07:40;15.65;;;9.20;;
69822;SDS011;57119;52.516;13.508;2022-08-25T02:10:07;15.25;;;8.70;;
69822;SDS011;57119;52.516;13.508;2022-08-25T02:12:34;15.13;;;8.93;;
69822;SDS011;57119;52.516;13.508;2022-08-25T02:15:00;16.98;;;8.75;;
69822;SDS011;57119;52.516;13.508;2022-08-25T02:17:27;16.88;;;9.70;;
69822;SDS011;57119;52.516;13.508;2022-08-25T02:19:53;17.08;;;9.07;;
69822;SDS011;57119;52.516;13.508;2022-08-25T02:22:21;15.98;;;8.82;;
69822;SDS011;57119;52.516;13.508;2022-08-25T02:24:47;16.43;;;9.40;;
69822;SDS011;57119;52.516;13.508;2022-08-25T02:27:13;18.45;;;9.10;;
69822;SDS011;57119;52.516;13.508;2022-08-25T02:29:38;16.00;;;8.60;;
69822;SDS011;57119;52.516;13.508;2022-08-25T02:32:04;16.25;;;8.55;;
69822;SDS011;57119;52.516;13.508;2022-08-25T02:34:30;17.13;;;9.10;;
69822;SDS011;57119;52.516;13.508;2022-08-25T02:36:55;16.90;;;8.63;;
69822;SDS011;57119;52.516;13.508;2022-08-25T02:39:21;15.57;;;8.97;;
69822;SDS011;57119;52.516;13.508;2022-08-25T02:41:46;17.07;;;9.43;;
69822;SDS011;57119;52.516;13.508;2022-08-25T02:44:12;16.45;;;10.38;;
69822;SDS011;57119;52.516;13.508;2022-08-25T02:46:38;15.70;;;10.17;;
69822;SDS011;57119;52.516;13.508;2022-08-25T02:49:04;21.48;;;11.15;;
69822;SDS011;57119;52.516;13.508;2022-08-25T02:51:31;18.60;;;10.48;;
69822;SDS011;57119;52.516;13.508;2022-08-25T02:53:58;17.38;;;10.00;;
69822;SDS011;57119;52.516;13.508;2022-08-25T02:56:26;18.50;;;10.07;;
69822;SDS011;57119;52.516;13.508;2022-08-25T02:58:53;18.02;;;9.55;;
69822;SDS011;57119;52.516;13.508;2022-08-25T03:01:19;17.70;;;10.27;;
69822;SDS011;57119;52.516;13.508;2022-08-25T03:03:45;16.98;;;10.73;;
69822;SDS011;57119;52.516;13.508;2022-08-25T03:06:13;19.08;;;10.10;;
69822;SDS011;57119;52.516;13.508;2022-08-25T03:08:40;17.20;;;10.07;;
69822;SDS011;57119;52.516;13.508;2022-08-25T03:11:06;19.17;;;10.73;;
69822;SDS011;57119;52.516;13.508;2022-08-25T03:13:32;18.93;;;10.50;;
69822;SDS011;57119;52.516;13.508;2022-08-25T03:15:58;19.88;;;10.60;;
69822;SDS011;57119;52.516;13.508;2022-08-25T03:18:24;17.38;;;10.27;;
69822;SDS011;57119;52.516;13.508;2022-08-25T03:20:49;21.27;;;10.60;;
69822;SDS011;57119;52.516;13.508;2022-08-25T03:23:15;22.43;;;11.70;;
69822;SDS011;57119;52.516;13.508;2022-08-25T03:25:41;19.27;;;10.85;;
69822;SDS011;57119;52.516;13.508;2022-08-25T03:28:25;21.35;;;11.32;;
69822;SDS011;57119;52.516;13.508;2022-08-25T03:30:51;20.57;;;11.77;;
69822;SDS011;57119;52.516;13.508;2022-08-25T03:33:17;19.80;;;10.07;;
69822;SDS011;57119;52.516;13.508;2022-08-25T03:35:43;18.60;;;10.65;;
69822;SDS011;57119;52.516;13.508;2022-08-25T03:38:09;17.63;;;11.03;;
69822;SDS011;57119;52.516;13.508;2022-08-25T03:40:35;19.17;;;10.73;;
69822;SDS011;57119;52.516;13.508;2022-08-25T03:43:01;24.73;;;11.83;;
69822;SDS011;57119;52.516;13.508;2022-08-25T03:45:26;19.20;;;10.60;;
69822;SDS011;57119;52.516;13.508;2022-08-25T03:47:52;19.20;;;10.70;;
69822;SDS011;57119;52.516;13.508;2022-08-25T03:50:18;19.05;;;11.32;;
69822;SDS011;57119;52.516;13.508;2022-08-25T03:52:49;19.90;;;11.48;;
69822;SDS011;57119;52.516;13.508;2022-08-25T03:55:17;22.57;;;12.93;;
69822;SDS011;57119;52.516;13.508;2022-08-25T03:57:44;18.88;;;12.00;;
69822;SDS011;57119;52.516;13.508;2022-08-25T04:00:10;20.37;;;11.23;;
69822;SDS011;57119;52.516;13.508;2022-08-25T04:02:36;20.52;;;11.73;;
69822;SDS011;57119;52.516;13.508;2022-08-25T04:05:02;21.80;;;13.02;;
69822;SDS011;57119;52.516;13.508;2022-08-25T04:07:28;20.90;;;12.90;;
69822;SDS011;57119;52.516;13.508;2022-08-25T04:09:54;22.67;;;12.48;;
69822;SDS011;57119;52.516;13.508;2022-08-25T04:12:20;20.33;;;12.35;;
69822;SDS011;57119;52.516;13.508;2022-08-25T04:14:45;21.97;;;12.77;;
69822;SDS011;57119;52.516;13.508;2022-08-25T04:17:11;19.87;;;12.07;;
69822;SDS011;57119;52.516;13.508;2022-08-25T04:19:36;23.00;;;13.20;;
69822;SDS011;57119;52.516;13.508;2022-08-25T04:22:02;20.58;;;12.75;;
69822;SDS011;57119;52.516;13.508;2022-08-25T04:24:27;23.00;;;12.90;;
69822;SDS011;57119;52.516;13.508;2022-08-25T04:26:53;24.77;;;13.30;;
69822;SDS011;57119;52.516;13.508;2022-08-25T04:29:19;28.83;;;14.23;;
69822;SDS011;57119;52.516;13.508;2022-08-25T04:31:46;22.50;;;13.65;;
69822;SDS011;57119;52.516;13.508;2022-08-25T04:34:14;26.07;;;14.03;;
69822;SDS011;57119;52.516;13.508;2022-08-25T04:36:41;24.08;;;14.07;;
69822;SDS011;57119;52.516;13.508;2022-08-25T04:39:06;24.17;;;14.03;;
69822;SDS011;57119;52.516;13.508;2022-08-25T04:41:31;30.00;;;15.20;;
69822;SDS011;57119;52.516;13.508;2022-08-25T04:43:57;29.50;;;16.07;;
69822;SDS011;57119;52.516;13.508;2022-08-25T04:46:25;30.75;;;17.15;;
69822;SDS011;57119;52.516;13.508;2022-08-25T04:48:53;30.17;;;16.83;;
69822;SDS011;57119;52.516;13.508;2022-08-25T04:51:21;34.63;;;16.70;;
69822;SDS011;57119;52.516;13.508;2022-08-25T04:53:49;28.85;;;16.10;;
69822;SDS011;57119;52.516;13.508;2022-08-25T04:56:16;29.60;;;15.57;;
69822;SDS011;57119;52.516;13.508;2022-08-25T04:58:43;27.48;;;15.95;;
69822;SDS011;57119;52.516;13.508;2022-08-25T05:01:12;28.20;;;15.32;;
69822;SDS011;57119;52.516;13.508;2022-08-25T05:03:42;28.57;;;13.80;;
69822;SDS011;57119;52.516;13.508;2022-08-25T05:06:09;30.38;;;15.63;;
69822;SDS011;57119;52.516;13.508;2022-08-25T05:08:35;24.92;;;14.43;;
69822;SDS011;57119;52.516;13.508;2022-08-25T05:11:09;25.27;;;14.03;;
69822;SDS011;57119;52.516;13.508;2022-08-25T05:13:37;25.83;;;14.55;;
69822;SDS011;57119;52.516;13.508;2022-08-25T05:16:03;21.52;;;13.85;;
69822;SDS011;57119;52.516;13.508;2022-08-25T05:18:30;26.23;;;14.32;;
69822;SDS011;57119;52.516;13.508;2022-08-25T05:20:56;27.52;;;13.73;;
69822;SDS011;57119;52.516;13.508;2022-08-25T05:23:26;21.80;;;12.73;;
69822;SDS011;57119;52.516;13.508;2022-08-25T05:25:51;22.38;;;12.88;;
69822;SDS011;57119;52.516;13.508;2022-08-25T05:28:17;21.53;;;12.80;;
69822;SDS011;57119;52.516;13.508;2022-08-25T05:30:43;22.60;;;12.48;;
69822;SDS011;57119;52.516;13.508;2022-08-25T05:33:10;21.40;;;13.50;;
69822;SDS011;57119;52.516;13.508;2022-08-25T05:35:36;22.27;;;12.55;;
69822;SDS011;57119;52.516;13.508;2022-08-25T05:38:02;22.17;;;13.10;;
69822;SDS011;57119;52.516;13.508;2022-08-25T05:40:29;20.23;;;11.52;;
69822;SDS011;57119;52.516;13.508;2022-08-25T05:42:55;20.40;;;12.15;;
69822;SDS011;57119;52.516;13.508;2022-08-25T05:45:20;21.73;;;12.03;;
69822;SDS011;57119;52.516;13.508;2022-08-25T05:47:46;22.57;;;12.43;;
69822;SDS011;57119;52.516;13.508;2022-08-25T05:50:12;20.65;;;12.82;;
69822;SDS011;57119;52.516;13.508;2022-08-25T05:52:38;22.83;;;13.03;;
69822;SDS011;57119;52.516;13.508;2022-08-25T05:55:03;22.77;;;13.52;;
69822;SDS011;57119;52.516;13.508;2022-08-25T05:57:29;21.77;;;12.45;;
69822;SDS011;57119;52.516;13.508;2022-08-25T05:59:55;25.60;;;13.47;;
69822;SDS011;57119;52.516;13.508;2022-08-25T06:02:20;25.90;;;13.73;;
69822;SDS011;57119;52.516;13.508;2022-08-25T06:05:04;21.85;;;12.75;;
69822;SDS011;57119;52.516;13.508;2022-08-25T06:07:30;23.73;;;12.60;;
69822;SDS011;57119;52.516;13.508;2022-08-25T06:09:55;21.40;;;12.93;;
69822;SDS011;57119;52.516;13.508;2022-08-25T06:12:20;22.23;;;13.70;;
69822;SDS011;57119;52.516;13.508;2022-08-25T06:14:46;20.70;;;13.00;;
69822;SDS011;57119;52.516;13.508;2022-08-25T06:17:13;23.42;;;13.30;;
69822;SDS011;57119;52.516;13.508;2022-08-25T06:19:39;23.30;;;12.90;;
69822;SDS011;57119;52.516;13.508;2022-08-25T06:22:04;24.37;;;13.43;;
69822;SDS011;57119;52.516;13.508;2022-08-25T06:24:30;24.87;;;12.80;;
69822;SDS011;57119;52.516;13.508;2022-08-25T06:26:56;21.63;;;12.60;;
69822;SDS011;57119;52.516;13.508;2022-08-25T06:29:21;20.27;;;12.43;;
69822;SDS011;57119;52.516;13.508;2022-08-25T06:31:47;23.50;;;12.90;;
69822;SDS011;57119;52.516;13.508;2022-08-25T06:34:14;21.08;;;12.73;;
69822;SDS011;57119;52.516;13.508;2022-08-25T06:36:39;19.55;;;12.38;;
69822;SDS011;57119;52.516;13.508;2022-08-25T06:39:05;23.77;;;13.03;;
69822;SDS011;57119;52.516;13.508;2022-08-25T06:41:31;23.02;;;12.93;;
69822;SDS011;57119;52.516;13.508;2022-08-25T06:43:56;21.57;;;11.97;;
69822;SDS011;57119;52.516;13.508;2022-08-25T06:46:23;24.08;;;13.65;;
69822;SDS011;57119;52.516;13.508;2022-08-25T06:48:55;24.20;;;13.93;;
69822;SDS011;57119;52.516;13.508;2022-08-25T06:51:21;25.67;;;14.23;;
69822;SDS011;57119;52.516;13.508;2022-08-25T06:53:48;24.17;;;13.27;;
69822;SDS011;57119;52.516;13.508;2022-08-25T06:56:15;23.67;;;13.55;;
69822;SDS011;57119;52.516;13.508;2022-08-25T06:58:41;23.83;;;14.23;;
69822;SDS011;57119;52.516;13.508;2022-08-25T07:01:14;20.83;;;12.07;;
69822;SDS011;57119;52.516;13.508;2022-08-25T07:03:43;22.17;;;13.50;;
69822;SDS011;57119;52.516;13.508;2022-08-25T07:06:09;21.97;;;11.87;;
69822;SDS011;57119;52.516;13.508;2022-08-25T07:08:34;20.70;;;12.67;;
69822;SDS011;57119;52.516;13.508;2022-08-25T07:11:07;21.55;;;12.30;;
69822;SDS011;57119;52.516;13.508;2022-08-25T07:13:33;25.20;;;12.57;;
69822;SDS011;57119;52.516;13.508;2022-08-25T07:16:00;26.38;;;13.27;;
69822;SDS011;57119;52.516;13.508;2022-08-25T07:18:26;25.10;;;12.67;;
69822;SDS011;57119;52.516;13.508;2022-08-25T07:20:52;24.38;;;12.55;;
69822;SDS011;57119;52.516;13.508;2022-08-25T07:23:18;25.10;;;13.60;;
69822;SDS011;57119;52.516;13.508;2022-08-25T07:25:44;23.25;;;11.98;;
69822;SDS011;57119;52.516;13.508;2022-08-25T07:28:10;22.15;;;12.68;;
69822;SDS011;57119;52.516;13.508;2022-08-25T07:30:36;25.60;;;12.93;;
69822;SDS011;57119;52.516;13.508;2022-08-25T07:33:01;25.33;;;13.47;;
69822;SDS011;57119;52.516;13.508;2022-08-25T07:35:26;28.40;;;14.40;;
69822;SDS011;57119;52.516;13.508;2022-08-25T07:37:53;27.87;;;13.30;;
69822;SDS011;57119;52.516;13.508;2022-08-25T07:40:28;25.33;;;12.75;;
69822;SDS011;57119;52.516;13.508;2022-08-25T07:42:56;29.42;;;13.88;;
69822;SDS011;57119;52.516;13.508;2022-08-25T07:45:25;24.88;;;13.90;;
69822;SDS011;57119;52.516;13.508;2022-08-25T07:47:56;23.40;;;12.55;;
69822;SDS011;57119;52.516;13.508;2022-08-25T07:50:23;25.70;;;13.40;;
69822;SDS011;57119;52.516;13.508;2022-08-25T07:52:49;25.75;;;15.13;;
69822;SDS011;57119;52.516;13.508;2022-08-25T07:55:15;23.58;;;13.63;;
69822;SDS011;57119;52.516;13.508;2022-08-25T07:57:41;23.53;;;13.30;;
69822;SDS011;57119;52.516;13.508;2022-08-25T08:00:07;21.88;;;12.82;;
69822;SDS011;57119;52.516;13.508;2022-08-25T08:02:36;23.73;;;12.60;;
69822;SDS011;57119;52.516;13.508;2022-08-25T08:05:03;24.48;;;13.15;;
69822;SDS011;57119;52.516;13.508;2022-08-25T08:07:28;23.05;;;13.52;;
69822;SDS011;57119;52.516;13.508;2022-08-25T08:09:55;24.20;;;13.40;;
69822;SDS011;57119;52.516;13.508;2022-08-25T08:12:21;26.10;;;13.20;;
69822;SDS011;57119;52.516;13.508;2022-08-25T08:14:47;22.45;;;12.73;;
69822;SDS011;57119;52.516;13.508;2022-08-25T08:17:13;20.77;;;12.52;;
69822;SDS011;57119;52.516;13.508;2022-08-25T08:19:38;19.93;;;11.80;;
69822;SDS011;57119;52.516;13.508;2022-08-25T08:22:04;20.38;;;12.13;;
69822;SDS011;57119;52.516;13.508;2022-08-25T08:24:30;19.90;;;11.47;;
69822;SDS011;57119;52.516;13.508;2022-08-25T08:26:56;17.33;;;11.45;;
69822;SDS011;57119;52.516;13.508;2022-08-25T08:29:22;20.35;;;12.93;;
69822;SDS011;57119;52.516;13.508;2022-08-25T08:31:48;16.37;;;11.07;;
69822;SDS011;57119;52.516;13.508;2022-08-25T08:34:13;16.67;;;11.07;;
69822;SDS011;57119;52.516;13.508;2022-08-25T08:36:40;17.00;;;10.87;;
69822;SDS011;57119;52.516;13.508;2022-08-25T08:39:05;16.63;;;10.83;;
69822;SDS011;57119;52.516;13.508;2022-08-25T08:45:32;15.93;;;10.05;;
69822;SDS011;57119;52.516;13.508;2022-08-25T08:53:48;19.48;;;9.90;;
69822;SDS011;57119;52.516;13.508;2022-08-25T08:56:19;14.48;;;8.48;;
69822;SDS011;57119;52.516;13.508;2022-08-25T08:58:51;15.73;;;9.30;;
69822;SDS011;57119;52.516;13.508;2022-08-25T09:01:27;18.27;;;10.70;;
69822;SDS011;57119;52.516;13.508;2022-08-25T09:04:03;14.20;;;9.40;;
69822;SDS011;57119;52.516;13.508;2022-08-25T09:06:37;16.48;;;9.77;;
69822;SDS011;57119;52.516;13.508;2022-08-25T09:09:06;14.30;;;8.30;;
69822;SDS011;57119;52.516;13.508;2022-08-25T09:17:18;13.60;;;8.77;;
69822;SDS011;57119;52.516;13.508;2022-08-25T09:20:34;14.35;;;8.38;;
69822;SDS011;57119;52.516;13.508;2022-08-25T09:31:07;13.63;;;8.47;;
69822;SDS011;57119;52.516;13.508;2022-08-25T09:33:56;14.40;;;8.50;;
69822;SDS011;57119;52.516;13.508;2022-08-25T09:36:24;12.80;;;8.45;;
69822;SDS011;57119;52.516;13.508;2022-08-25T09:38:50;11.75;;;8.07;;
69822;SDS011;57119;52.516;13.508;2022-08-25T09:41:17;12.00;;;7.80;;
69822;SDS011;57119;52.516;13.508;2022-08-25T09:44:03;12.02;;;7.18;;
69822;SDS011;57119;52.516;13.508;2022-08-25T09:46:29;14.10;;;9.47;;
69822;SDS011;57119;52.516;13.508;2022-08-25T09:48:55;13.50;;;8.90;;
69822;SDS011;57119;52.516;13.508;2022-08-25T09:51:41;13.27;;;7.25;;
69822;SDS011;57119;52.516;13.508;2022-08-25T09:56:47;12.02;;;7.70;;
69822;SDS011;57119;52.516;13.508;2022-08-25T09:59:19;11.77;;;7.95;;
69822;SDS011;57119;52.516;13.508;2022-08-25T10:01:55;12.37;;;8.83;;
69822;SDS011;57119;52.516;13.508;2022-08-25T10:04:29;10.97;;;7.67;;
69822;SDS011;57119;52.516;13.508;2022-08-25T10:07:03;12.25;;;7.22;;
69822;SDS011;57119;52.516;13.508;2022-08-25T10:09:44;9.77;;;7.05;;
69822;SDS011;57119;52.516;13.508;2022-08-25T10:12:19;9.65;;;6.97;;
69822;SDS011;57119;52.516;13.508;2022-08-25T10:14:48;12.73;;;7.93;;
69822;SDS011;57119;52.516;13.508;2022-08-25T10:17:18;12.03;;;7.13;;
69822;SDS011;57119;52.516;13.508;2022-08-25T10:19:50;12.48;;;7.03;;
69822;SDS011;57119;52.516;13.508;2022-08-25T10:22:23;14.80;;;7.07;;
69822;SDS011;57119;52.516;13.508;2022-08-25T10:24:56;12.23;;;6.00;;
69822;SDS011;57119;52.516;13.508;2022-08-25T10:32:35;11.93;;;7.07;;
69822;SDS011;57119;52.516;13.508;2022-08-25T10:35:13;12.35;;;7.88;;
69822;SDS011;57119;52.516;13.508;2022-08-25T10:37:50;13.90;;;7.18;;
69822;SDS011;57119;52.516;13.508;2022-08-25T10:40:55;13.05;;;6.13;;
69822;SDS011;57119;52.516;13.508;2022-08-25T10:43:48;10.70;;;7.00;;
69822;SDS011;57119;52.516;13.508;2022-08-25T10:46:42;12.10;;;6.53;;
69822;SDS011;57119;52.516;13.508;2022-08-25T10:49:25;13.77;;;7.25;;
69822;SDS011;57119;52.516;13.508;2022-08-25T10:55:15;11.73;;;6.80;;
69822;SDS011;57119;52.516;13.508;2022-08-25T10:57:51;16.63;;;8.05;;
69822;SDS011;57119;52.516;13.508;2022-08-25T11:00:25;13.57;;;6.33;;
69822;SDS011;57119;52.516;13.508;2022-08-25T11:03:09;12.43;;;7.20;;
69822;SDS011;57119;52.516;13.508;2022-08-25T11:08:31;12.20;;;7.38;;
69822;SDS011;57119;52.516;13.508;2022-08-25T11:14:39;11.90;;;5.97;;
69822;SDS011;57119;52.516;13.508;2022-08-25T11:16:43;11.77;;;6.80;;
69822;SDS011;57119;52.516;13.508;2022-08-25T11:19:18;13.32;;;7.00;;
69822;SDS011;57119;52.516;13.508;2022-08-25T11:21:50;14.98;;;6.35;;
69822;SDS011;57119;52.516;13.508;2022-08-25T11:24:41;14.30;;;6.63;;
69822;SDS011;57119;52.516;13.508;2022-08-25T11:27:16;15.15;;;7.07;;
69822;SDS011;57119;52.516;13.508;2022-08-25T11:29:48;11.27;;;7.10;;
69822;SDS011;57119;52.516;13.508;2022-08-25T11:32:30;11.63;;;6.70;;
69822;SDS011;57119;52.516;13.508;2022-08-25T11:35:00;11.63;;;5.78;;
69822;SDS011;57119;52.516;13.508;2022-08-25T11:37:27;13.30;;;6.10;;
69822;SDS011;57119;52.516;13.508;2022-08-25T11:42:53;12.73;;;5.93;;
69822;SDS011;57119;52.516;13.508;2022-08-25T11:50:56;15.65;;;6.40;;
69822;SDS011;57119;52.516;13.508;2022-08-25T11:56:05;15.20;;;9.00;;
69822;SDS011;57119;52.516;13.508;2022-08-25T11:58:55;16.53;;;7.90;;
69822;SDS011;57119;52.516;13.508;2022-08-25T12:04:11;14.05;;;8.07;;
69822;SDS011;57119;52.516;13.508;2022-08-25T12:10:07;16.35;;;8.27;;
69822;SDS011;57119;52.516;13.508;2022-08-25T12:12:37;12.73;;;7.87;;
69822;SDS011;57119;52.516;13.508;2022-08-25T12:15:21;12.82;;;6.78;;
69822;SDS011;57119;52.516;13.508;2022-08-25T12:23:31;24.60;;;9.75;;
69822;SDS011;57119;52.516;13.508;2022-08-25T12:26:00;16.40;;;7.32;;
69822;SDS011;57119;52.516;13.508;2022-08-25T12:34:16;12.88;;;8.13;;
69822;SDS011;57119;52.516;13.508;2022-08-25T12:36:57;13.23;;;7.82;;
69822;SDS011;57119;52.516;13.508;2022-08-25T12:39:28;11.65;;;6.55;;
69822;SDS011;57119;52.516;13.508;2022-08-25T12:42:11;12.30;;;8.03;;
69822;SDS011;57119;52.516;13.508;2022-08-25T12:45:45;14.43;;;8.43;;
69822;SDS011;57119;52.516;13.508;2022-08-25T12:47:54;15.50;;;7.40;;
69822;SDS011;57119;52.516;13.508;2022-08-25T12:50:23;12.65;;;7.68;;
69822;SDS011;57119;52.516;13.508;2022-08-25T12:52:53;15.23;;;8.13;;
69822;SDS011;57119;52.516;13.508;2022-08-25T12:55:21;13.25;;;7.63;;
69822;SDS011;57119;52.516;13.508;2022-08-25T12:57:51;13.03;;;6.83;;
69822;SDS011;57119;52.516;13.508;2022-08-25T13:00:25;13.97;;;8.37;;
69822;SDS011;57119;52.516;13.508;2022-08-25T13:06:18;12.45;;;8.02;;
69822;SDS011;57119;52.516;13.508;2022-08-25T13:11:45;13.80;;;7.22;;
69822;SDS011;57119;52.516;13.508;2022-08-25T13:14:21;13.60;;;7.57;;
69822;SDS011;57119;52.516;13.508;2022-08-25T13:17:11;13.67;;;8.20;;
69822;SDS011;57119;52.516;13.508;2022-08-25T13:19:49;12.18;;;8.23;;
69822;SDS011;57119;52.516;13.508;2022-08-25T13:22:15;13.17;;;7.70;;
69822;SDS011;57119;52.516;13.508;2022-08-25T13:24:43;9.93;;;5.75;;
69822;SDS011;57119;52.516;13.508;2022-08-25T13:27:17;11.70;;;5.43;;
69822;SDS011;57119;52.516;13.508;2022-08-25T13:29:52;11.85;;;5.65;;
69822;SDS011;57119;52.516;13.508;2022-08-25T13:32:26;12.47;;;5.97;;
69822;SDS011;57119;52.516;13.508;2022-08-25T13:35:06;13.17;;;7.57;;
69822;SDS011;57119;52.516;13.508;2022-08-25T13:37:36;11.95;;;6.10;;
69822;SDS011;57119;52.516;13.508;2022-08-25T13:40:15;12.17;;;7.17;;
69822;SDS011;57119;52.516;13.508;2022-08-25T13:42:50;16.23;;;6.60;;
69822;SDS011;57119;52.516;13.508;2022-08-25T13:45:22;13.55;;;5.80;;
69822;SDS011;57119;52.516;13.508;2022-08-25T13:47:49;11.43;;;7.40;;
69822;SDS011;57119;52.516;13.508;2022-08-25T13:53:04;12.27;;;7.35;;
69822;SDS011;57119;52.516;13.508;2022-08-25T13:58:20;13.87;;;7.90;;
69822;SDS011;57119;52.516;13.508;2022-08-25T14:00:50;11.35;;;6.30;;
69822;SDS011;57119;52.516;13.508;2022-08-25T14:03:32;15.93;;;7.85;;
69822;SDS011;57119;52.516;13.508;2022-08-25T14:06:07;16.85;;;7.55;;
69822;SDS011;57119;52.516;13.508;2022-08-25T14:08:36;15.07;;;7.20;;
69822;SDS011;57119;52.516;13.508;2022-08-25T14:11:10;13.60;;;6.77;;
69822;SDS011;57119;52.516;13.508;2022-08-25T14:13:57;15.07;;;8.23;;
69822;SDS011;57119;52.516;13.508;2022-08-25T14:16:47;15.77;;;7.65;;
69822;SDS011;57119;52.516;13.508;2022-08-25T14:19:16;14.35;;;7.72;;
69822;SDS011;57119;52.516;13.508;2022-08-25T14:21:43;13.80;;;7.65;;
69822;SDS011;57119;52.516;13.508;2022-08-25T14:24:08;18.27;;;8.33;;
69822;SDS011;57119;52.516;13.508;2022-08-25T14:26:40;12.77;;;5.95;;
69822;SDS011;57119;52.516;13.508;2022-08-25T14:29:05;17.77;;;8.33;;
69822;SDS011;57119;52.516;13.508;2022-08-25T14:31:31;18.52;;;6.65;;
69822;SDS011;57119;52.516;13.508;2022-08-25T14:34:00;12.07;;;7.03;;
69822;SDS011;57119;52.516;13.508;2022-08-25T14:36:28;14.95;;;6.57;;
69822;SDS011;57119;52.516;13.508;2022-08-25T14:38:54;13.88;;;7.88;;
69822;SDS011;57119;52.516;13.508;2022-08-25T14:41:20;13.38;;;8.27;;
69822;SDS011;57119;52.516;13.508;2022-08-25T14:43:47;18.73;;;7.25;;
69822;SDS011;57119;52.516;13.508;2022-08-25T14:46:17;13.57;;;7.87;;
69822;SDS011;57119;52.516;13.508;2022-08-25T14:48:46;13.82;;;7.20;;
69822;SDS011;57119;52.516;13.508;2022-08-25T14:51:18;11.82;;;7.30;;
69822;SDS011;57119;52.516;13.508;2022-08-25T14:53:44;15.37;;;6.03;;
69822;SDS011;57119;52.516;13.508;2022-08-25T14:56:10;15.73;;;6.30;;
69822;SDS011;57119;52.516;13.508;2022-08-25T14:58:35;12.40;;;5.80;;
69822;SDS011;57119;52.516;13.508;2022-08-25T15:01:01;11.97;;;5.50;;
69822;SDS011;57119;52.516;13.508;2022-08-25T15:03:29;12.07;;;5.65;;
69822;SDS011;57119;52.516;13.508;2022-08-25T15:05:55;14.40;;;6.88;;
69822;SDS011;57119;52.516;13.508;2022-08-25T15:08:21;18.15;;;7.55;;
69822;SDS011;57119;52.516;13.508;2022-08-25T15:11:05;15.97;;;7.67;;
69822;SDS011;57119;52.516;13.508;2022-08-25T15:13:30;11.15;;;6.57;;
69822;SDS011;57119;52.516;13.508;2022-08-25T15:15:56;18.03;;;6.80;;
69822;SDS011;57119;52.516;13.508;2022-08-25T15:18:22;12.35;;;6.22;;
69822;SDS011;57119;52.516;13.508;2022-08-25T15:20:48;15.20;;;6.97;;
69822;SDS011;57119;52.516;13.508;2022-08-25T15:23:13;11.73;;;6.65;;
69822;SDS011;57119;52.516;13.508;2022-08-25T15:25:43;13.40;;;6.67;;
69822;SDS011;57119;52.516;13.508;2022-08-25T15:28:11;12.95;;;5.90;;
69822;SDS011;57119;52.516;13.508;2022-08-25T15:30:36;14.93;;;5.73;;
69822;SDS011;57119;52.516;13.508;2022-08-25T15:33:02;13.37;;;6.03;;
69822;SDS011;57119;52.516;13.508;2022-08-25T15:35:27;14.53;;;6.00;;
69822;SDS011;57119;52.516;13.508;2022-08-25T15:37:53;13.63;;;5.63;;
69822;SDS011;57119;52.516;13.508;2022-08-25T15:40:18;14.50;;;6.43;;
69822;SDS011;57119;52.516;13.508;2022-08-25T15:42:44;17.77;;;7.23;;
69822;SDS011;57119;52.516;13.508;2022-08-25T15:45:10;15.43;;;6.43;;
69822;SDS011;57119;52.516;13.508;2022-08-25T15:47:35;13.63;;;7.00;;
69822;SDS011;57119;52.516;13.508;2022-08-25T15:50:03;15.98;;;6.80;;
69822;SDS011;57119;52.516;13.508;2022-08-25T15:52:32;14.50;;;6.32;;
69822;SDS011;57119;52.516;13.508;2022-08-25T15:54:57;14.10;;;6.70;;
69822;SDS011;57119;52.516;13.508;2022-08-25T15:57:23;17.35;;;7.15;;